Kortenberg, Belgium
Current Conditions -  °F | °C
As of 12:20 PM on Wednesday 26 Nov 2014 (Local Time) from EBBR Reporting Station
Light Rain Light Rain  
Wind Chill: 41°   Ceiling: 2300
Heat Index: 45°   Visibility: 4mi
Dew Point: 41°   Wind: 6mph
Humidity: 87%   Direction: 110°ESE
Pressure: 29.91"   Gusts: NA
Location:  50.89°N, 4.54°E
Report Text: EBBR 261120Z 11005KT 080V140 6000 -RA BKN023 07/05 Q1013 BECMG 4500 BR
Loading
Personal Weather Stations






























Interactive Weather Map New forecast layout! Learn more

10-Day Weather Forecast

Advertisements
Track Severe Weather on mobile